createdAt,value
2018-04-30T00:00:14.505Z,17.59
2018-04-30T00:01:18.990Z,17.48
2018-04-30T00:02:23.510Z,17.47
2018-04-30T00:03:28.617Z,17.32
2018-04-30T00:04:33.182Z,17.16
2018-04-30T00:05:37.638Z,17.11
2018-04-30T00:06:42.120Z,17.00
2018-04-30T00:07:46.707Z,16.91
2018-04-30T00:08:51.103Z,16.93
2018-04-30T00:09:55.906Z,16.89
2018-04-30T00:11:00.483Z,16.93
2018-04-30T00:12:05.053Z,16.93
2018-04-30T00:13:09.720Z,16.97
2018-04-30T00:14:14.296Z,16.98
2018-04-30T00:15:18.744Z,17.04
2018-04-30T00:16:23.763Z,17.02
2018-04-30T00:17:28.298Z,17.01
2018-04-30T00:18:32.824Z,17.15
2018-04-30T00:19:37.374Z,17.18
2018-04-30T00:20:41.885Z,17.11
2018-04-30T00:21:46.470Z,17.09
2018-04-30T00:22:51.401Z,16.99
2018-04-30T00:23:55.946Z,16.92
2018-04-30T00:25:00.474Z,16.99
2018-04-30T00:26:05.070Z,17.06
2018-04-30T00:27:09.621Z,16.95
2018-04-30T00:28:14.125Z,16.90
2018-04-30T00:29:19.011Z,16.96
2018-04-30T00:30:23.468Z,16.97
2018-04-30T00:31:27.860Z,16.99
2018-04-30T00:32:32.259Z,17.05
2018-04-30T00:33:36.680Z,17.08
2018-04-30T00:34:41.059Z,17.11
2018-04-30T00:35:45.774Z,16.99
2018-04-30T00:36:50.157Z,16.90
2018-04-30T00:37:54.527Z,16.86
2018-04-30T00:38:58.887Z,16.78
2018-04-30T00:40:03.418Z,16.68
2018-04-30T00:41:07.879Z,16.54
2018-04-30T00:42:12.734Z,16.46
2018-04-30T00:43:17.206Z,16.39
2018-04-30T00:44:21.657Z,16.35
2018-04-30T00:45:26.135Z,16.31
2018-04-30T00:46:30.683Z,16.28
2018-04-30T00:47:35.022Z,16.20
2018-04-30T00:48:39.845Z,16.19
2018-04-30T00:49:44.293Z,16.15
2018-04-30T00:50:48.816Z,16.08
2018-04-30T00:51:53.233Z,16.01
2018-04-30T00:52:57.687Z,16.06
2018-04-30T00:54:02.140Z,15.80
2018-04-30T00:55:07.070Z,15.76
2018-04-30T00:56:11.521Z,15.85
2018-04-30T00:57:15.960Z,15.87
2018-04-30T00:58:20.419Z,15.73
2018-04-30T00:59:24.892Z,15.58
2018-04-30T01:00:29.409Z,15.64
2018-04-30T01:01:34.445Z,15.44
2018-04-30T01:02:38.957Z,15.50
2018-04-30T01:03:43.511Z,15.55
2018-04-30T01:04:48.104Z,15.57
2018-04-30T01:05:52.668Z,15.60
2018-04-30T01:06:57.186Z,15.59
2018-04-30T01:08:02.117Z,15.55
2018-04-30T01:09:06.648Z,15.46
2018-04-30T01:10:11.160Z,15.43
2018-04-30T01:11:15.715Z,15.38
2018-04-30T01:12:20.240Z,15.37
2018-04-30T01:13:24.737Z,15.31
2018-04-30T01:14:29.618Z,15.23
2018-04-30T01:15:34.185Z,15.22
2018-04-30T01:16:38.739Z,15.05
2018-04-30T01:17:43.302Z,14.93
2018-04-30T01:18:47.827Z,14.84
2018-04-30T01:19:52.379Z,14.85
2018-04-30T01:20:57.288Z,14.76
2018-04-30T01:22:01.903Z,14.74
2018-04-30T01:23:06.422Z,14.74
2018-04-30T01:24:10.991Z,14.64
2018-04-30T01:25:15.530Z,14.60
2018-04-30T01:26:20.058Z,14.66
2018-04-30T01:27:25.031Z,14.63
2018-04-30T01:28:29.579Z,14.63
2018-04-30T01:29:34.198Z,14.64
2018-04-30T01:30:38.713Z,14.59
2018-04-30T01:31:43.244Z,14.61
2018-04-30T01:32:47.800Z,14.49
2018-04-30T01:33:52.588Z,14.55
2018-04-30T01:34:57.174Z,14.52
2018-04-30T01:36:01.645Z,14.60
2018-04-30T01:37:06.082Z,14.57
2018-04-30T01:38:10.497Z,14.58
2018-04-30T01:39:14.913Z,14.54
2018-04-30T01:40:19.768Z,14.57
2018-04-30T01:41:24.168Z,14.53
2018-04-30T01:42:28.572Z,14.54
2018-04-30T01:43:33.065Z,14.63
2018-04-30T01:44:37.606Z,14.69
2018-04-30T01:45:42.054Z,14.59
2018-04-30T01:46:46.913Z,14.57
2018-04-30T01:47:51.357Z,14.56
2018-04-30T01:48:55.885Z,14.50
2018-04-30T01:50:00.341Z,14.36
2018-04-30T01:51:04.816Z,14.29
2018-04-30T01:52:09.354Z,14.37
2018-04-30T01:53:14.172Z,14.36
2018-04-30T01:54:18.709Z,14.25
2018-04-30T01:55:23.182Z,14.22
2018-04-30T01:56:27.648Z,14.28
2018-04-30T01:57:32.364Z,14.24
2018-04-30T01:58:36.828Z,14.20
2018-04-30T01:59:41.708Z,14.10
2018-04-30T02:00:46.215Z,14.05
2018-04-30T02:01:50.810Z,14.13
2018-04-30T02:02:55.476Z,14.04
2018-04-30T02:04:00.022Z,14.21
2018-04-30T02:05:04.577Z,14.20
2018-04-30T02:06:09.460Z,14.20
2018-04-30T02:07:14.005Z,14.19
2018-04-30T02:08:18.582Z,14.17
2018-04-30T02:09:23.115Z,14.10
2018-04-30T02:10:27.536Z,14.16
2018-04-30T02:11:32.064Z,14.13
2018-04-30T02:12:36.891Z,14.09
2018-04-30T02:13:41.892Z,14.09
2018-04-30T02:14:46.403Z,14.14
2018-04-30T02:15:50.952Z,14.05
2018-04-30T02:16:55.484Z,13.96
2018-04-30T02:18:00.035Z,14.00
2018-04-30T02:19:05.052Z,13.99
2018-04-30T02:20:09.591Z,14.03
2018-04-30T02:21:15.229Z,14.00
2018-04-30T02:22:19.806Z,13.93
2018-04-30T02:23:24.306Z,13.89
2018-04-30T02:24:40.176Z,13.92
2018-04-30T02:25:44.590Z,13.86
2018-04-30T02:26:49.007Z,13.88
2018-04-30T02:27:53.388Z,13.91
2018-04-30T02:28:57.799Z,13.85
2018-04-30T02:30:02.310Z,13.84
2018-04-30T02:31:07.367Z,13.80
2018-04-30T02:32:11.926Z,13.77
2018-04-30T02:33:16.737Z,13.77
2018-04-30T02:34:21.275Z,13.80
2018-04-30T02:35:25.814Z,13.83
2018-04-30T02:36:30.316Z,13.78
2018-04-30T02:37:35.241Z,13.85
2018-04-30T02:38:39.814Z,13.92
2018-04-30T02:39:44.348Z,13.90
2018-04-30T02:40:48.853Z,13.88
2018-04-30T02:41:53.294Z,13.88
2018-04-30T02:42:57.783Z,13.86
2018-04-30T02:44:02.691Z,13.78
2018-04-30T02:45:07.166Z,13.74
2018-04-30T02:46:12.219Z,13.73
2018-04-30T02:47:16.794Z,13.76
2018-04-30T02:48:21.444Z,13.75
2018-04-30T02:49:25.973Z,13.69
2018-04-30T02:50:31.022Z,13.66
2018-04-30T02:51:35.596Z,13.61
2018-04-30T02:52:40.049Z,13.60
2018-04-30T02:53:44.537Z,13.56
2018-04-30T02:54:49.004Z,13.50
2018-04-30T02:55:53.454Z,13.40
2018-04-30T02:56:58.219Z,13.27
2018-04-30T02:58:02.598Z,13.30
2018-04-30T02:59:06.987Z,13.29
2018-04-30T03:00:11.399Z,13.33
2018-04-30T03:01:15.866Z,13.42
2018-04-30T03:02:20.344Z,13.42
2018-04-30T03:03:25.278Z,13.30
2018-04-30T03:04:29.739Z,13.25
2018-04-30T03:05:34.278Z,13.26
2018-04-30T03:06:38.820Z,13.27
2018-04-30T03:07:43.338Z,13.30
2018-04-30T03:08:47.882Z,13.23
2018-04-30T03:09:52.865Z,13.22
2018-04-30T03:10:57.399Z,13.22
2018-04-30T03:12:01.962Z,13.26
2018-04-30T03:13:06.499Z,13.32
2018-04-30T03:14:11.030Z,13.33
2018-04-30T03:15:15.599Z,13.35
2018-04-30T03:16:20.456Z,13.40
2018-04-30T03:17:24.964Z,13.37
2018-04-30T03:18:29.431Z,13.37
2018-04-30T03:19:33.919Z,13.32
2018-04-30T03:20:38.397Z,13.36
2018-04-30T03:21:42.861Z,13.36
2018-04-30T03:22:47.773Z,13.33
2018-04-30T03:23:52.231Z,13.30
2018-04-30T03:24:56.724Z,13.30
2018-04-30T03:26:01.283Z,13.30
2018-04-30T03:27:05.746Z,13.32
2018-04-30T03:28:10.626Z,13.32
2018-04-30T03:29:15.075Z,13.34
2018-04-30T03:30:19.645Z,13.38
2018-04-30T03:31:24.357Z,13.38
2018-04-30T03:32:28.943Z,13.37
2018-04-30T03:33:33.488Z,13.39
2018-04-30T03:34:38.456Z,13.39
2018-04-30T03:35:43.027Z,13.41
2018-04-30T03:36:47.595Z,13.44
2018-04-30T03:37:52.145Z,13.37
2018-04-30T03:38:56.701Z,13.34
2018-04-30T03:40:01.248Z,13.29
2018-04-30T03:41:06.179Z,13.23
2018-04-30T03:42:11.023Z,13.05
2018-04-30T03:43:15.482Z,12.96
2018-04-30T03:44:20.759Z,12.85
2018-04-30T03:45:25.271Z,12.82
2018-04-30T03:46:29.755Z,12.81
2018-04-30T03:47:34.650Z,12.73
2018-04-30T03:48:39.214Z,12.55
2018-04-30T03:49:43.763Z,12.48
2018-04-30T03:50:48.125Z,12.48
2018-04-30T03:51:52.607Z,12.43
2018-04-30T03:52:57.049Z,12.40
2018-04-30T03:54:01.914Z,12.51
2018-04-30T03:55:06.217Z,12.48
2018-04-30T03:56:10.692Z,12.54
2018-04-30T03:57:15.175Z,12.55
2018-04-30T03:58:19.640Z,12.61
2018-04-30T03:59:24.151Z,12.55
2018-04-30T04:00:33.392Z,12.55
2018-04-30T04:01:43.116Z,12.49
2018-04-30T04:02:52.914Z,12.57
2018-04-30T04:04:02.471Z,12.53
2018-04-30T04:07:19.621Z,12.56
2018-04-30T04:08:24.153Z,12.60
2018-04-30T04:09:28.673Z,12.64
2018-04-30T04:10:33.113Z,12.56
2018-04-30T04:11:37.565Z,12.62
2018-04-30T04:12:42.089Z,12.62
2018-04-30T04:13:47.025Z,12.59
2018-04-30T04:14:51.497Z,12.63
2018-04-30T04:15:55.965Z,12.54
2018-04-30T04:17:00.460Z,12.49
2018-04-30T04:18:04.931Z,12.54
2018-04-30T04:19:09.331Z,12.50
2018-04-30T04:20:14.262Z,12.45
2018-04-30T04:21:18.754Z,12.46
2018-04-30T04:22:23.257Z,12.57
2018-04-30T04:23:27.740Z,12.45
2018-04-30T04:24:32.258Z,12.50
2018-04-30T04:25:36.723Z,12.51
2018-04-30T04:26:41.559Z,12.56
2018-04-30T04:27:46.160Z,12.48
2018-04-30T04:28:50.685Z,12.49
2018-04-30T04:29:55.218Z,12.50
2018-04-30T04:30:59.806Z,12.51
2018-04-30T04:32:04.343Z,12.50
2018-04-30T04:33:09.396Z,12.46
2018-04-30T04:34:14.200Z,12.44
2018-04-30T04:35:18.698Z,12.48
2018-04-30T04:36:23.276Z,12.50
2018-04-30T04:37:27.842Z,12.48
2018-04-30T04:38:32.397Z,12.49
2018-04-30T04:39:37.415Z,12.39
2018-04-30T04:40:42.176Z,12.39
2018-04-30T04:41:46.833Z,12.36
2018-04-30T04:42:51.353Z,12.32
2018-04-30T04:43:55.843Z,12.41
2018-04-30T04:45:00.328Z,12.39
2018-04-30T04:46:05.281Z,12.36
2018-04-30T04:47:09.813Z,12.33
2018-04-30T04:48:14.310Z,12.39
2018-04-30T04:49:18.835Z,12.40
2018-04-30T04:50:23.339Z,12.43
2018-04-30T04:51:27.950Z,12.45
2018-04-30T04:52:33.007Z,12.45
2018-04-30T04:53:37.556Z,12.45
2018-04-30T04:54:42.110Z,12.44
2018-04-30T04:55:46.685Z,12.40
2018-04-30T04:56:51.252Z,12.41
2018-04-30T04:57:55.785Z,12.39
2018-04-30T04:59:00.661Z,12.38
2018-04-30T05:00:05.240Z,12.36
2018-04-30T05:01:09.797Z,12.35
2018-04-30T05:02:15.356Z,12.31
2018-04-30T05:03:20.409Z,12.29
2018-04-30T05:04:27.024Z,12.30
2018-04-30T05:05:32.067Z,12.39
2018-04-30T05:06:36.648Z,12.33
2018-04-30T05:07:41.253Z,12.38
2018-04-30T05:08:45.788Z,12.39
2018-04-30T05:09:50.333Z,12.37
2018-04-30T05:10:54.869Z,12.30
2018-04-30T05:11:59.716Z,12.27
2018-04-30T05:13:04.186Z,12.32
2018-04-30T05:14:08.630Z,12.27
2018-04-30T05:15:13.105Z,12.24
2018-04-30T05:16:17.647Z,12.36
2018-04-30T05:17:22.165Z,12.37
2018-04-30T05:18:26.982Z,12.37
2018-04-30T05:19:31.542Z,12.25
2018-04-30T05:20:38.217Z,12.30
2018-04-30T05:21:42.806Z,12.21
2018-04-30T05:22:47.526Z,12.26
2018-04-30T05:23:52.637Z,12.26
2018-04-30T05:24:57.682Z,12.27
2018-04-30T05:26:02.350Z,12.23
2018-04-30T05:27:06.867Z,12.23
2018-04-30T05:28:11.402Z,12.20
2018-04-30T05:29:15.970Z,12.27
2018-04-30T05:30:20.499Z,12.31
2018-04-30T05:31:25.437Z,12.32
2018-04-30T05:32:30.009Z,12.21
2018-04-30T05:33:34.554Z,12.26
2018-04-30T05:34:39.135Z,12.26
2018-04-30T05:35:43.618Z,12.22
2018-04-30T05:36:48.093Z,12.23
2018-04-30T05:37:53.087Z,12.28
2018-04-30T05:38:57.616Z,12.31
2018-04-30T05:40:02.064Z,12.32
2018-04-30T05:41:06.611Z,12.30
2018-04-30T05:42:11.135Z,12.33
2018-04-30T05:43:15.655Z,12.31
2018-04-30T05:44:20.555Z,12.25
2018-04-30T05:45:25.029Z,12.36
2018-04-30T05:46:29.593Z,12.34
2018-04-30T05:47:34.261Z,12.33
2018-04-30T05:48:38.815Z,12.34
2018-04-30T05:49:43.449Z,12.39
2018-04-30T05:50:48.545Z,12.34
2018-04-30T05:51:53.118Z,12.33
2018-04-30T05:52:57.768Z,12.30
2018-04-30T05:54:02.386Z,12.40
2018-04-30T05:55:07.205Z,12.35
2018-04-30T05:56:11.771Z,12.41
2018-04-30T05:57:16.799Z,12.48
2018-04-30T05:58:21.178Z,12.37
2018-04-30T05:59:25.598Z,12.33
2018-04-30T06:00:30.077Z,12.40
2018-04-30T06:01:34.587Z,12.24
2018-04-30T06:02:39.159Z,12.34
2018-04-30T06:03:44.106Z,12.33
2018-04-30T06:04:48.736Z,12.32
2018-04-30T06:05:53.149Z,12.38
2018-04-30T06:06:57.508Z,12.39
2018-04-30T06:08:01.830Z,12.29
2018-04-30T06:09:06.378Z,12.20
2018-04-30T06:10:11.038Z,12.18
2018-04-30T06:11:15.419Z,12.22
2018-04-30T06:12:19.919Z,12.22
2018-04-30T06:13:24.235Z,12.21
2018-04-30T06:14:28.705Z,12.12
2018-04-30T06:15:33.192Z,12.20
2018-04-30T06:16:38.236Z,12.26
2018-04-30T06:17:42.830Z,12.27
2018-04-30T06:18:47.377Z,12.15
2018-04-30T06:19:51.995Z,12.20
2018-04-30T06:20:56.590Z,12.16
2018-04-30T06:22:01.209Z,12.13
2018-04-30T06:23:06.237Z,12.14
2018-04-30T06:24:10.786Z,12.09
2018-04-30T06:25:15.356Z,12.09
2018-04-30T06:26:19.878Z,12.03
2018-04-30T06:27:24.471Z,12.02
2018-04-30T06:28:29.024Z,12.11
2018-04-30T06:29:33.958Z,12.02
2018-04-30T06:30:38.546Z,11.99
2018-04-30T06:31:43.175Z,11.99
2018-04-30T06:32:47.745Z,12.00
2018-04-30T06:33:52.304Z,11.99
2018-04-30T06:34:56.885Z,11.96
2018-04-30T06:36:01.888Z,11.95
2018-04-30T06:37:06.414Z,11.96
2018-04-30T06:38:10.992Z,11.97
2018-04-30T06:39:15.378Z,11.92
2018-04-30T06:40:19.903Z,11.82
2018-04-30T06:41:24.291Z,11.76
2018-04-30T06:42:29.186Z,11.76
2018-04-30T06:43:33.622Z,11.69
2018-04-30T06:44:38.047Z,11.64
2018-04-30T06:45:42.532Z,11.62
2018-04-30T06:46:46.971Z,11.54
2018-04-30T06:47:51.540Z,11.52
2018-04-30T06:48:56.645Z,11.60
2018-04-30T06:50:01.190Z,11.56
2018-04-30T06:51:05.796Z,11.51
2018-04-30T06:52:10.387Z,11.50
2018-04-30T06:53:15.105Z,11.55
2018-04-30T06:54:19.726Z,11.44
2018-04-30T06:55:24.317Z,11.56
2018-04-30T06:56:28.925Z,11.46
2018-04-30T06:57:33.492Z,11.43
2018-04-30T06:58:38.060Z,11.44
2018-04-30T06:59:42.660Z,11.41
2018-04-30T07:00:47.663Z,11.32
2018-04-30T07:01:52.257Z,11.34
2018-04-30T07:02:56.894Z,11.27
2018-04-30T07:04:01.503Z,11.31
2018-04-30T07:05:06.074Z,11.41
2018-04-30T07:06:10.555Z,11.46
2018-04-30T07:07:15.216Z,11.47
2018-04-30T07:08:19.759Z,11.41
2018-04-30T07:09:24.434Z,11.41
2018-04-30T07:10:28.885Z,11.36
2018-04-30T07:11:33.403Z,11.44
2018-04-30T07:12:38.159Z,11.48
2018-04-30T07:13:42.850Z,11.52
2018-04-30T07:14:47.435Z,11.55
2018-04-30T07:15:51.997Z,11.50
2018-04-30T07:16:56.578Z,11.58
2018-04-30T07:18:01.131Z,11.56
2018-04-30T07:19:05.775Z,11.46
2018-04-30T07:20:10.427Z,11.47
2018-04-30T07:21:14.765Z,11.57
2018-04-30T07:22:19.252Z,11.60
2018-04-30T07:23:23.817Z,11.68
2018-04-30T07:24:28.695Z,11.61
2018-04-30T07:25:33.631Z,11.64
2018-04-30T07:26:38.319Z,11.63
2018-04-30T07:27:42.989Z,11.59
2018-04-30T07:28:47.473Z,11.55
2018-04-30T07:29:51.996Z,11.47
2018-04-30T07:30:57.047Z,11.50
2018-04-30T07:32:01.682Z,11.40
2018-04-30T07:33:06.307Z,11.40
2018-04-30T07:34:10.857Z,11.48
2018-04-30T07:35:15.466Z,11.46
2018-04-30T07:36:20.156Z,11.45
2018-04-30T07:37:25.361Z,11.56
2018-04-30T07:38:29.986Z,11.57
2018-04-30T07:39:34.611Z,11.53
2018-04-30T07:40:39.208Z,11.59
2018-04-30T07:41:43.808Z,11.56
2018-04-30T07:42:48.565Z,11.69
2018-04-30T07:43:53.664Z,11.58
2018-04-30T07:44:58.277Z,11.61
2018-04-30T07:46:02.939Z,11.57
2018-04-30T07:47:07.689Z,11.64
2018-04-30T07:48:12.384Z,11.75
2018-04-30T07:49:17.114Z,11.74
2018-04-30T07:50:22.069Z,11.63
2018-04-30T07:51:26.691Z,11.52
2018-04-30T07:52:31.383Z,11.54
2018-04-30T07:53:36.079Z,11.52
2018-04-30T07:54:40.741Z,11.43
2018-04-30T07:55:45.341Z,11.35
2018-04-30T07:56:49.901Z,11.39
2018-04-30T07:57:54.627Z,11.51
2018-04-30T07:58:59.242Z,11.56
2018-04-30T08:00:03.928Z,11.56
2018-04-30T08:01:08.535Z,11.57
2018-04-30T08:02:13.130Z,11.70
2018-04-30T08:03:17.690Z,11.68
2018-04-30T08:04:22.346Z,11.68
2018-04-30T08:05:26.917Z,11.66
2018-04-30T08:06:31.503Z,11.58
2018-04-30T08:07:36.146Z,11.55
2018-04-30T08:08:41.383Z,11.60
2018-04-30T08:09:45.949Z,11.64
2018-04-30T08:10:50.545Z,11.63
2018-04-30T08:11:55.406Z,11.54
2018-04-30T08:13:00.506Z,11.58
2018-04-30T08:14:05.227Z,11.59
2018-04-30T08:15:09.926Z,11.58
2018-04-30T08:16:14.495Z,11.51
2018-04-30T08:17:18.990Z,11.60
2018-04-30T08:18:23.686Z,11.69
2018-04-30T08:19:29.321Z,11.66
2018-04-30T08:20:33.857Z,11.65
2018-04-30T08:21:38.711Z,11.65
2018-04-30T08:22:43.380Z,11.65
2018-04-30T08:23:47.922Z,11.71
2018-04-30T08:24:52.551Z,11.74
2018-04-30T08:25:57.194Z,11.77
2018-04-30T08:27:01.800Z,11.79
2018-04-30T08:28:06.375Z,11.72
2018-04-30T08:29:10.974Z,11.74
2018-04-30T08:30:16.213Z,11.77
2018-04-30T08:31:20.825Z,11.80
2018-04-30T08:32:25.400Z,11.79
2018-04-30T08:33:30.039Z,11.72
2018-04-30T08:34:34.610Z,11.75
2018-04-30T08:35:39.269Z,11.69
2018-04-30T08:36:44.342Z,11.71
2018-04-30T08:37:48.964Z,11.68
2018-04-30T08:38:53.784Z,11.69
2018-04-30T08:39:58.391Z,11.68
2018-04-30T08:41:03.026Z,11.60
2018-04-30T08:42:07.621Z,11.61
2018-04-30T08:43:12.512Z,11.68
2018-04-30T08:44:17.100Z,11.66
2018-04-30T08:45:21.629Z,11.69
2018-04-30T08:46:26.210Z,11.72
2018-04-30T08:47:30.760Z,11.66
2018-04-30T08:48:35.334Z,11.72
2018-04-30T08:49:40.406Z,11.62
2018-04-30T08:50:45.026Z,11.64
2018-04-30T08:51:49.674Z,11.65
2018-04-30T08:52:54.293Z,11.62
2018-04-30T08:53:58.899Z,11.57
2018-04-30T08:55:03.514Z,11.67
2018-04-30T08:56:08.435Z,11.65
2018-04-30T08:57:13.072Z,11.64
2018-04-30T08:58:17.722Z,11.57
2018-04-30T08:59:22.352Z,11.57
2018-04-30T09:00:26.899Z,11.59
2018-04-30T09:01:31.576Z,11.63
2018-04-30T09:02:36.601Z,11.69
2018-04-30T09:03:41.239Z,11.69
2018-04-30T09:04:45.926Z,11.61
2018-04-30T09:05:50.558Z,11.51
2018-04-30T09:06:55.157Z,11.54
2018-04-30T09:07:59.741Z,11.63
2018-04-30T09:09:04.933Z,11.66
2018-04-30T09:10:09.545Z,11.69
2018-04-30T09:11:14.158Z,11.61
2018-04-30T09:12:18.733Z,11.63
2018-04-30T09:13:23.407Z,11.66
2018-04-30T09:14:27.969Z,11.65
2018-04-30T09:15:32.989Z,11.71
2018-04-30T09:16:37.554Z,11.74
2018-04-30T09:17:42.094Z,11.77
2018-04-30T09:18:46.693Z,11.79
2018-04-30T09:19:51.244Z,11.91
2018-04-30T09:20:55.812Z,11.93
2018-04-30T09:22:00.944Z,11.99
2018-04-30T09:23:05.521Z,12.13
2018-04-30T09:24:10.755Z,12.23
2018-04-30T09:25:15.336Z,12.28
2018-04-30T09:26:19.943Z,12.23
2018-04-30T09:27:24.575Z,12.26
2018-04-30T09:28:29.685Z,12.28
2018-04-30T09:29:34.334Z,12.21
2018-04-30T09:30:38.955Z,12.29
2018-04-30T09:31:43.521Z,12.20
2018-04-30T09:32:48.087Z,12.05
2018-04-30T09:33:52.694Z,12.07
2018-04-30T09:34:57.525Z,12.22
2018-04-30T09:36:02.003Z,12.15
2018-04-30T09:37:06.429Z,12.17
2018-04-30T09:38:11.062Z,12.16
2018-04-30T09:39:15.719Z,12.17
2018-04-30T09:40:20.568Z,12.15
2018-04-30T09:41:25.387Z,12.14
2018-04-30T09:42:29.982Z,12.17
2018-04-30T09:43:34.591Z,12.22
2018-04-30T09:44:39.259Z,12.23
2018-04-30T09:45:43.877Z,12.30
2018-04-30T09:46:48.573Z,12.28
2018-04-30T09:47:53.162Z,12.37
2018-04-30T09:48:57.930Z,12.34
2018-04-30T09:50:02.670Z,12.40
2018-04-30T09:51:07.326Z,12.38
2018-04-30T09:52:11.899Z,12.27
2018-04-30T09:53:17.069Z,12.30
2018-04-30T09:54:21.703Z,12.30
2018-04-30T09:55:26.339Z,12.30
2018-04-30T09:56:30.941Z,12.20
2018-04-30T09:57:35.567Z,12.26
2018-04-30T09:58:40.138Z,12.25
2018-04-30T09:59:45.275Z,12.24
2018-04-30T10:00:49.790Z,12.18
2018-04-30T10:01:54.284Z,12.21
2018-04-30T10:02:58.821Z,12.22
2018-04-30T10:04:03.380Z,12.32
2018-04-30T10:05:07.975Z,12.33
2018-04-30T10:06:12.566Z,12.34
2018-04-30T10:07:17.291Z,12.32
2018-04-30T10:08:21.869Z,12.34
2018-04-30T10:09:26.439Z,12.33
2018-04-30T10:10:31.010Z,12.40
2018-04-30T10:11:36.162Z,12.45
2018-04-30T10:12:40.716Z,12.37
2018-04-30T10:13:45.306Z,12.34
2018-04-30T10:14:49.917Z,12.33
2018-04-30T10:15:54.486Z,12.33
2018-04-30T10:16:59.048Z,12.28
2018-04-30T10:18:04.025Z,12.20
2018-04-30T10:19:08.681Z,12.19
2018-04-30T10:20:13.190Z,12.22
2018-04-30T10:21:17.730Z,12.34
2018-04-30T10:22:22.206Z,12.37
2018-04-30T10:23:26.824Z,12.41
2018-04-30T10:24:31.330Z,12.41
2018-04-30T10:25:35.880Z,12.53
2018-04-30T10:26:40.461Z,12.37
2018-04-30T10:27:45.190Z,12.30
2018-04-30T10:28:49.954Z,12.39
2018-04-30T10:29:54.898Z,12.28
2018-04-30T10:30:59.433Z,12.23
2018-04-30T10:32:03.956Z,12.13
2018-04-30T10:33:08.486Z,12.24
2018-04-30T10:34:13.132Z,12.22
2018-04-30T10:35:17.912Z,12.16
2018-04-30T10:36:22.973Z,12.16
2018-04-30T10:37:27.541Z,12.27
2018-04-30T10:38:32.114Z,12.28
2018-04-30T10:39:36.679Z,12.25
2018-04-30T10:40:41.843Z,12.37
2018-04-30T10:41:46.433Z,12.35
2018-04-30T10:42:51.332Z,12.43
2018-04-30T10:43:55.846Z,12.50
2018-04-30T10:45:00.432Z,12.47
2018-04-30T10:46:04.952Z,12.47
2018-04-30T10:47:09.611Z,12.58
2018-04-30T10:48:14.191Z,12.71
2018-04-30T10:49:19.714Z,12.56
2018-04-30T10:50:24.286Z,12.80
2018-04-30T10:51:28.917Z,12.77
2018-04-30T10:52:33.513Z,12.57
2018-04-30T10:53:39.835Z,12.39
2018-04-30T10:54:44.851Z,12.67
2018-04-30T10:55:49.394Z,12.55
2018-04-30T10:56:53.976Z,12.44
2018-04-30T10:57:58.580Z,12.39
2018-04-30T10:59:03.160Z,12.45
2018-04-30T11:00:07.764Z,12.49
2018-04-30T11:01:12.741Z,12.45
2018-04-30T11:02:17.358Z,12.45
2018-04-30T11:03:21.915Z,12.40
2018-04-30T11:04:27.000Z,12.38
2018-04-30T11:05:31.723Z,12.42
2018-04-30T11:06:36.318Z,12.51
2018-04-30T11:07:40.928Z,12.57
2018-04-30T11:08:45.450Z,12.41
2018-04-30T11:09:50.039Z,12.33
2018-04-30T11:10:54.555Z,12.28
2018-04-30T11:11:59.173Z,12.23
2018-04-30T11:13:04.317Z,12.22
2018-04-30T11:14:09.029Z,12.13
2018-04-30T11:15:13.519Z,12.20
2018-04-30T11:16:18.134Z,12.23
2018-04-30T11:17:22.641Z,12.24
2018-04-30T11:18:27.152Z,12.16
2018-04-30T11:19:32.025Z,12.10
2018-04-30T11:20:36.572Z,12.11
2018-04-30T11:21:41.089Z,12.09
2018-04-30T11:22:45.612Z,12.10
2018-04-30T11:23:50.256Z,12.15
2018-04-30T11:24:54.833Z,12.20
2018-04-30T11:26:00.350Z,12.27
2018-04-30T11:27:11.704Z,12.34
2018-04-30T11:28:16.283Z,12.34
2018-04-30T11:29:20.848Z,12.33
2018-04-30T11:30:25.346Z,12.27
2018-04-30T11:31:38.993Z,12.31
2018-04-30T11:32:44.080Z,12.28
2018-04-30T11:33:48.781Z,12.38
2018-04-30T11:34:53.402Z,12.28
2018-04-30T11:35:57.953Z,12.38
2018-04-30T11:37:02.505Z,12.39
2018-04-30T11:38:12.076Z,12.40
2018-04-30T11:39:16.700Z,12.35
2018-04-30T11:40:23.975Z,12.39
2018-04-30T11:41:28.573Z,12.33
2018-04-30T11:42:42.144Z,12.29
2018-04-30T11:43:47.808Z,12.30
2018-04-30T11:44:57.594Z,12.33
2018-04-30T11:47:14.864Z,12.37
2018-04-30T11:48:19.381Z,12.37
2018-04-30T11:49:24.318Z,12.40
2018-04-30T11:50:33.217Z,12.31
2018-04-30T11:51:44.048Z,12.28
2018-04-30T11:52:59.082Z,12.31
2018-04-30T11:54:03.783Z,12.31
2018-04-30T11:55:14.499Z,12.35
2018-04-30T11:57:40.893Z,12.32
2018-04-30T11:58:47.841Z,12.25
2018-04-30T11:59:52.480Z,12.29
2018-04-30T12:01:00.652Z,12.30
2018-04-30T12:02:20.780Z,12.31
2018-04-30T12:03:37.068Z,12.37
2018-04-30T12:04:45.729Z,12.42
2018-04-30T12:06:00.690Z,12.40
2018-04-30T12:07:09.565Z,12.47
2018-04-30T12:08:14.797Z,12.38
2018-04-30T12:09:21.572Z,12.42
2018-04-30T12:10:28.207Z,12.41
2018-04-30T12:11:35.265Z,12.36
2018-04-30T12:15:19.880Z,12.30
2018-04-30T12:16:24.539Z,12.30
2018-04-30T12:17:39.724Z,12.16
2018-04-30T12:18:44.328Z,12.12
2018-04-30T12:19:57.099Z,12.09
2018-04-30T12:21:02.181Z,12.09
2018-04-30T12:22:13.348Z,11.98
2018-04-30T12:23:26.789Z,11.83
2018-04-30T12:24:31.361Z,11.62
2018-04-30T12:25:41.861Z,11.48
2018-04-30T12:26:54.729Z,11.33
2018-04-30T12:28:07.341Z,11.34
2018-04-30T12:29:23.524Z,11.47
2018-04-30T12:30:33.913Z,11.48
2018-04-30T12:31:41.314Z,11.51
2018-04-30T12:32:52.207Z,11.59
2018-04-30T12:34:03.026Z,11.58
2018-04-30T12:35:07.599Z,11.49
2018-04-30T12:36:15.176Z,11.60
2018-04-30T12:37:27.851Z,11.69
2018-04-30T12:38:35.496Z,11.76
2018-04-30T12:39:41.175Z,11.77
2018-04-30T12:41:03.718Z,11.85
2018-04-30T12:42:23.202Z,11.92
2018-04-30T12:43:28.849Z,11.83
2018-04-30T12:44:47.149Z,11.72
2018-04-30T12:45:53.181Z,11.76
2018-04-30T12:46:57.687Z,11.64
2018-04-30T12:48:07.596Z,11.55
2018-04-30T12:49:15.408Z,11.59
2018-04-30T12:50:22.595Z,11.66
2018-04-30T12:51:28.842Z,11.77
2018-04-30T12:53:51.311Z,11.69
2018-04-30T12:54:58.872Z,11.61
2018-04-30T12:56:05.106Z,11.65
2018-04-30T12:57:14.530Z,11.68
2018-04-30T12:58:19.140Z,11.70
2018-04-30T12:59:23.706Z,11.70
2018-04-30T13:00:28.192Z,11.74
2018-04-30T13:01:34.842Z,11.84
2018-04-30T13:02:39.452Z,11.87
2018-04-30T13:04:02.691Z,11.91
2018-04-30T13:05:07.514Z,11.89
2018-04-30T13:06:12.035Z,11.95
2018-04-30T13:07:16.846Z,11.87
2018-04-30T13:08:21.380Z,11.90
2018-04-30T13:09:25.885Z,11.95
2018-04-30T13:10:30.604Z,11.89
2018-04-30T13:11:35.191Z,11.86
2018-04-30T13:12:39.876Z,11.80
2018-04-30T13:13:44.477Z,11.78
2018-04-30T13:14:49.062Z,11.76
2018-04-30T13:15:53.614Z,11.72
2018-04-30T13:16:58.164Z,11.70
2018-04-30T13:18:02.728Z,11.66
2018-04-30T13:19:07.237Z,11.70
2018-04-30T13:20:11.983Z,11.74
2018-04-30T13:21:24.737Z,11.84
2018-04-30T13:22:29.230Z,12.23
2018-04-30T13:23:33.703Z,12.45
2018-04-30T13:24:38.273Z,12.67
2018-04-30T13:25:43.383Z,12.83
2018-04-30T13:26:47.897Z,13.35
2018-04-30T13:27:53.117Z,13.53
2018-04-30T13:28:57.615Z,13.33
2018-04-30T13:30:02.888Z,13.22
2018-04-30T13:31:07.568Z,13.07
2018-04-30T13:32:12.101Z,12.82
2018-04-30T13:33:16.660Z,12.75
2018-04-30T13:34:21.729Z,12.72
2018-04-30T13:35:26.221Z,12.61
2018-04-30T13:36:31.147Z,12.60
2018-04-30T13:37:36.473Z,12.57
2018-04-30T13:38:41.019Z,12.51
2018-04-30T13:39:45.900Z,12.28
2018-04-30T13:40:50.983Z,12.11
2018-04-30T13:41:55.580Z,12.12
2018-04-30T13:43:00.130Z,12.09
2018-04-30T13:44:04.731Z,11.99
2018-04-30T13:45:09.334Z,11.82
2018-04-30T13:46:13.925Z,11.52
2018-04-30T13:47:18.865Z,10.99
2018-04-30T13:48:23.462Z,10.94
2018-04-30T13:49:28.010Z,11.01
2018-04-30T13:50:32.594Z,11.17
2018-04-30T13:51:37.250Z,11.41
2018-04-30T13:52:41.856Z,11.94
2018-04-30T13:53:46.742Z,11.76
2018-04-30T13:54:51.285Z,11.60
2018-04-30T13:55:55.875Z,11.50
2018-04-30T13:57:00.442Z,11.58
2018-04-30T13:58:05.053Z,11.59
2018-04-30T13:59:09.617Z,11.61
2018-04-30T14:00:14.686Z,11.66
2018-04-30T14:01:19.279Z,11.71
2018-04-30T14:02:24.017Z,11.83
2018-04-30T14:03:28.447Z,11.97
2018-04-30T14:04:32.941Z,12.50
2018-04-30T14:05:37.330Z,12.71
2018-04-30T14:06:42.316Z,12.82